Time;durP1;ratioP1;P1;durP2;ratioP2;P2;SDS_P1;SDS_P2;PMS_P1;PMS_P2;Temp;Humidity;BMP_temperature;BMP_pressure;BME280_temperature;BME280_humidity;BME280_pressure;Samples;Min_cycle;Max_cycle;Signal;HPM_P1;HPM_P2
2023/06/10 00:00:41;;;;;;;10.30;4.25;;;;;;;-143.48;51.42;118439.88;5015904;28;20025;-75
2023/06/10 00:03:07;;;;;;;9.27;4.05;;;;;;;-143.48;51.17;118439.88;5033639;28;20073;-75
2023/06/10 00:05:32;;;;;;;15.25;4.95;;;;;;;-143.48;51.03;118439.88;5033604;28;20049;-75
2023/06/10 00:07:58;;;;;;;8.38;3.90;;;;;;;-143.48;50.66;118439.88;5015708;28;20625;-75
2023/06/10 00:10:25;;;;;;;11.20;4.47;;;;;;;-143.48;50.23;118439.88;5015882;28;20041;-75
2023/06/10 00:12:51;;;;;;;7.28;4.10;;;;;;;-143.48;50.28;118439.88;5014288;28;20048;-75
2023/06/10 00:15:16;;;;;;;10.77;4.10;;;;;;;-143.48;49.83;118439.88;5033100;28;20096;-75
2023/06/10 00:17:43;;;;;;;7.10;3.95;;;;;;;-143.48;49.81;118439.88;5016176;28;20407;-75
2023/06/10 00:20:11;;;;;;;9.02;4.30;;;;;;;-143.48;49.89;118439.88;5016006;28;20105;-75
2023/06/10 00:22:37;;;;;;;12.98;4.22;;;;;;;-143.48;49.81;118439.88;5033235;28;20021;-75
2023/06/10 00:25:04;;;;;;;7.95;3.75;;;;;;;-143.48;49.69;118439.88;5015494;28;20105;-75
2023/06/10 00:27:34;;;;;;;9.65;4.20;;;;;;;-143.48;49.80;118439.88;5033541;28;20036;-75
2023/06/10 00:30:01;;;;;;;6.13;3.72;;;;;;;-143.48;49.69;118439.88;5033605;28;20021;-75
2023/06/10 00:32:26;;;;;;;11.00;3.90;;;;;;;-143.48;49.41;118439.88;5016118;28;20107;-75
2023/06/10 00:34:51;;;;;;;8.02;4.35;;;;;;;-143.48;49.01;118439.88;5015939;28;20528;-76
2023/06/10 00:37:16;;;;;;;9.48;4.00;;;;;;;-143.48;48.65;118439.88;5033434;28;20025;-75
2023/06/10 00:39:42;;;;;;;13.00;3.92;;;;;;;-143.48;49.15;118439.88;5015838;28;20021;-75
2023/06/10 00:42:08;;;;;;;8.88;4.05;;;;;;;-143.48;48.22;118439.88;5015566;28;20025;-75
2023/06/10 00:44:33;;;;;;;10.23;4.15;;;;;;;-143.48;48.63;118439.88;5015581;28;20053;-75
2023/06/10 00:46:58;;;;;;;6.18;4.05;;;;;;;-143.48;47.93;118439.88;5015688;28;20014;-75
2023/06/10 00:49:24;;;;;;;7.68;3.92;;;;;;;-143.48;48.22;118439.88;5033404;28;20472;-76
2023/06/10 00:51:51;;;;;;;9.30;4.18;;;;;;;-143.48;48.21;118439.88;5015633;28;20424;-76
2023/06/10 00:54:17;;;;;;;9.18;3.78;;;;;;;-143.48;48.24;118439.88;5015669;28;20029;-75
2023/06/10 00:56:43;;;;;;;13.60;4.20;;;;;;;-143.48;47.79;118439.88;5015383;28;20018;-75
2023/06/10 00:59:09;;;;;;;11.05;4.13;;;;;;;-143.48;48.10;118439.88;5015681;28;20036;-75
2023/06/10 01:01:34;;;;;;;8.55;3.85;;;;;;;-143.48;47.87;118439.88;5012236;28;20042;-75
2023/06/10 01:04:00;;;;;;;6.68;4.05;;;;;;;-143.48;47.68;118439.88;5012104;28;20028;-75
2023/06/10 01:07:02;;;;;;;7.85;3.83;;;;;;;-143.48;47.76;118439.88;5012345;28;20445;-75
2023/06/10 01:09:57;;;;;;;10.45;3.85;;;;;;;-143.48;47.52;118439.88;5012102;28;20030;-75
2023/06/10 01:12:41;;;;;;;10.88;4.10;;;;;;;-143.48;47.46;118439.88;5012116;28;20424;-75
2023/06/10 01:15:08;;;;;;;10.20;4.22;;;;;;;-143.48;47.07;118439.88;5013432;28;20079;-76
2023/06/10 01:18:14;;;;;;;7.05;4.13;;;;;;;-143.48;47.35;118439.88;5012398;28;20057;-75
2023/06/10 01:20:41;;;;;;;11.57;4.03;;;;;;;-143.48;47.43;118439.88;5012092;28;20474;-76
2023/06/10 01:23:07;;;;;;;6.95;3.95;;;;;;;-143.48;47.40;118439.88;5011867;28;20485;-76
2023/06/10 01:25:36;;;;;;;7.57;4.03;;;;;;;-143.48;47.35;118439.88;5015673;28;20026;-76
2023/06/10 01:28:13;;;;;;;7.20;4.20;;;;;;;-143.48;47.29;118439.88;5015971;28;20033;-76
2023/06/10 01:30:43;;;;;;;6.85;3.90;;;;;;;-143.48;47.38;118439.88;5015478;28;20029;-76
2023/06/10 01:33:12;;;;;;;7.35;4.32;;;;;;;-143.48;47.28;118439.88;5017056;28;20030;-76
2023/06/10 01:35:39;;;;;;;6.97;4.40;;;;;;;-143.48;47.18;118439.88;5016756;28;20038;-76
2023/06/10 01:38:05;;;;;;;7.72;4.35;;;;;;;-143.48;47.44;118439.88;5015432;28;20029;-76
2023/06/10 01:40:32;;;;;;;6.43;4.00;;;;;;;-143.48;47.43;118439.88;5015532;28;20036;-76
2023/06/10 01:42:57;;;;;;;9.18;4.10;;;;;;;-143.48;47.06;118439.88;5016807;28;20029;-76
2023/06/10 01:45:22;;;;;;;12.02;4.32;;;;;;;-143.48;47.19;118439.88;5015254;28;20450;-77
2023/06/10 01:47:48;;;;;;;6.13;4.20;;;;;;;-143.48;47.67;118439.88;5015275;28;20026;-76
2023/06/10 01:50:14;;;;;;;12.90;4.68;;;;;;;-143.48;47.43;118439.88;5015108;28;20030;-76
2023/06/10 01:52:39;;;;;;;7.82;4.40;;;;;;;-143.48;48.01;118439.88;5014947;28;20018;-76
2023/06/10 01:55:05;;;;;;;10.00;4.57;;;;;;;-143.48;48.06;118439.88;5016338;28;20026;-76
2023/06/10 01:57:30;;;;;;;9.60;4.30;;;;;;;-143.48;48.33;118439.88;5015204;28;20060;-76
2023/06/10 01:59:56;;;;;;;7.07;4.03;;;;;;;-143.48;48.27;118439.88;5014991;28;20072;-76
2023/06/10 02:02:22;;;;;;;7.85;4.03;;;;;;;-143.48;48.16;118439.88;5014915;28;20061;-76
2023/06/10 02:04:47;;;;;;;8.80;4.10;;;;;;;-143.48;48.21;118439.88;5014692;28;20017;-76
2023/06/10 02:07:12;;;;;;;8.68;4.35;;;;;;;-143.48;48.28;118439.88;5014797;28;20037;-76
2023/06/10 02:09:38;;;;;;;8.10;4.60;;;;;;;-143.48;48.60;118439.88;5015038;28;20465;-76
2023/06/10 02:12:03;;;;;;;7.38;4.30;;;;;;;-143.48;49.01;118439.88;5016112;28;20034;-76
2023/06/10 02:14:29;;;;;;;10.93;4.60;;;;;;;-143.48;48.77;118439.88;5014673;28;20120;-76
2023/06/10 02:16:56;;;;;;;10.05;4.05;;;;;;;-143.48;49.09;118439.88;5014889;28;20029;-76
2023/06/10 02:19:22;;;;;;;9.30;4.30;;;;;;;-143.48;49.48;118439.88;5015876;28;20033;-76
2023/06/10 02:21:47;;;;;;;8.07;4.60;;;;;;;-143.48;49.30;118439.88;5014512;28;20029;-76
2023/06/10 02:24:13;;;;;;;7.53;4.35;;;;;;;-143.48;49.58;118439.88;5015831;28;20041;-76
2023/06/10 02:26:38;;;;;;;7.65;4.70;;;;;;;-143.48;49.45;118439.88;5014520;28;20025;-76
2023/06/10 02:29:04;;;;;;;12.82;4.50;;;;;;;-143.48;49.08;118439.88;5016029;28;20033;-76
2023/06/10 02:31:29;;;;;;;7.32;4.45;;;;;;;-143.48;49.88;118439.88;5015611;28;20060;-76
2023/06/10 02:33:55;;;;;;;11.15;4.32;;;;;;;-143.48;49.82;118439.88;5014092;28;20022;-76
2023/06/10 02:36:21;;;;;;;8.68;4.43;;;;;;;-143.48;50.34;118439.88;5013731;28;20091;-77
2023/06/10 02:38:47;;;;;;;9.57;5.03;;;;;;;-143.48;49.99;118439.88;5015252;28;20477;-76
2023/06/10 02:41:12;;;;;;;15.07;4.55;;;;;;;-143.48;49.98;118439.88;5013765;28;20061;-76
2023/06/10 02:43:37;;;;;;;10.43;4.55;;;;;;;-143.48;50.37;118439.88;5013883;28;20026;-76
2023/06/10 02:46:03;;;;;;;10.55;4.85;;;;;;;-143.48;50.27;118439.88;5013961;28;20032;-76
2023/06/10 02:48:28;;;;;;;7.90;4.70;;;;;;;-143.48;51.04;118439.88;5014501;28;20516;-76
2023/06/10 02:50:53;;;;;;;11.50;4.60;;;;;;;-143.48;51.09;118439.88;5014579;28;20033;-76
2023/06/10 02:53:19;;;;;;;10.48;4.63;;;;;;;-143.48;50.79;118439.88;5013349;28;20029;-76
2023/06/10 02:55:44;;;;;;;7.35;4.63;;;;;;;-143.48;51.00;118439.88;5013488;28;20033;-76
2023/06/10 02:58:10;;;;;;;12.40;4.40;;;;;;;-143.48;50.89;118439.88;5014633;28;20453;-76
2023/06/10 03:00:36;;;;;;;7.88;4.22;;;;;;;-143.48;51.22;118439.88;5013373;28;20022;-76
2023/06/10 03:03:03;;;;;;;9.55;4.72;;;;;;;-143.48;51.45;118439.88;5013187;28;20347;-76
2023/06/10 03:05:29;;;;;;;13.30;4.68;;;;;;;-143.48;51.61;118439.88;5012378;28;20048;-76
2023/06/10 03:07:54;;;;;;;12.10;4.70;;;;;;;-143.48;51.67;118439.88;5013291;28;20025;-76
2023/06/10 03:10:20;;;;;;;8.40;4.50;;;;;;;-143.48;51.88;118439.88;5012161;28;20052;-76
2023/06/10 03:12:45;;;;;;;6.60;4.20;;;;;;;-143.48;51.98;118439.88;5012753;28;20449;-76
2023/06/10 03:15:10;;;;;;;9.25;4.57;;;;;;;-143.48;52.47;118439.88;5014288;28;20363;-76
2023/06/10 03:17:36;;;;;;;10.40;5.00;;;;;;;-143.48;52.39;118439.88;5013112;28;20367;-76
2023/06/10 03:20:03;;;;;;;14.15;4.82;;;;;;;-143.48;52.40;118439.88;5014555;28;20061;-76
2023/06/10 03:22:28;;;;;;;11.00;4.85;;;;;;;-143.48;52.56;118439.88;5013080;28;20490;-76
2023/06/10 03:24:54;;;;;;;12.55;4.85;;;;;;;-143.48;52.57;118439.88;5012996;28;20060;-76
2023/06/10 03:27:20;;;;;;;10.65;4.82;;;;;;;-143.48;52.80;118439.88;5014299;28;20096;-76
2023/06/10 03:29:45;;;;;;;10.65;4.68;;;;;;;-143.48;52.61;118439.88;5012791;28;20034;-76
2023/06/10 03:32:11;;;;;;;9.23;4.60;;;;;;;-143.48;53.12;118439.88;5012895;28;20033;-76
2023/06/10 03:34:36;;;;;;;7.68;4.60;;;;;;;-143.48;53.04;118439.88;5012628;28;20049;-76
2023/06/10 03:37:02;;;;;;;10.77;4.72;;;;;;;-143.48;52.85;118439.88;4996449;28;20061;-75
2023/06/10 03:39:29;;;;;;;13.57;4.95;;;;;;;-143.48;53.14;118439.88;5012638;28;20030;-76
2023/06/10 03:41:55;;;;;;;8.43;4.85;;;;;;;-143.48;53.27;118439.88;5012776;28;20021;-76
2023/06/10 03:44:20;;;;;;;10.25;5.10;;;;;;;-143.48;53.07;118439.88;5012576;28;20017;-76
2023/06/10 03:46:47;;;;;;;12.38;5.10;;;;;;;-143.48;53.03;118439.88;5013626;28;20037;-76
2023/06/10 03:49:12;;;;;;;11.35;4.55;;;;;;;-143.48;52.99;118439.88;5012588;28;20485;-75
2023/06/10 03:51:38;;;;;;;7.43;4.43;;;;;;;-143.48;53.17;118439.88;5012585;28;20029;-76
2023/06/10 03:54:03;;;;;;;8.50;4.72;;;;;;;-143.48;53.28;118439.88;5012363;28;20030;-76
2023/06/10 03:56:28;;;;;;;9.18;4.63;;;;;;;-143.48;53.97;118439.88;5013687;28;20030;-76
2023/06/10 03:58:55;;;;;;;8.43;4.50;;;;;;;-143.48;53.79;118439.88;5013694;28;20113;-76
2023/06/10 04:01:20;;;;;;;11.98;4.70;;;;;;;-143.48;53.74;118439.88;5017233;28;20045;-76
2023/06/10 04:03:48;;;;;;;9.40;4.57;;;;;;;-143.48;54.06;118439.88;5033332;28;20048;-76
2023/06/10 04:06:13;;;;;;;14.20;4.90;;;;;;;-143.48;54.68;118439.88;5015562;28;20028;-76
2023/06/10 04:08:39;;;;;;;11.73;4.82;;;;;;;-143.48;54.18;118439.88;5033161;28;20021;-76
2023/06/10 04:11:04;;;;;;;9.07;5.05;;;;;;;-143.48;54.18;118439.88;5033294;28;20029;-76
2023/06/10 04:13:29;;;;;;;11.63;4.97;;;;;;;-143.48;54.66;118439.88;5015488;28;20026;-76
2023/06/10 04:15:55;;;;;;;10.70;4.85;;;;;;;-143.48;55.05;118439.88;5015288;28;20057;-75
2023/06/10 04:18:21;;;;;;;10.45;4.82;;;;;;;-143.48;54.92;118439.88;5033106;28;20034;-75
2023/06/10 04:20:47;;;;;;;14.80;4.85;;;;;;;-143.48;54.74;118439.88;5015345;28;20041;-75
2023/06/10 04:23:12;;;;;;;8.13;4.65;;;;;;;-143.48;54.92;118439.88;5015357;28;20029;-76
2023/06/10 04:25:37;;;;;;;10.70;4.90;;;;;;;-143.48;55.81;118439.88;5015385;28;20053;-76
2023/06/10 04:28:03;;;;;;;8.00;5.13;;;;;;;-143.48;55.79;118439.88;5032985;28;20026;-76
2023/06/10 04:30:28;;;;;;;9.82;5.10;;;;;;;-143.48;55.14;118439.88;5033070;28;20057;-76
2023/06/10 04:32:54;;;;;;;13.63;4.80;;;;;;;-143.48;55.90;118439.88;5015297;28;20087;-76
2023/06/10 04:35:19;;;;;;;14.57;5.15;;;;;;;-143.48;55.78;118439.88;4999073;28;20029;-76
2023/06/10 04:37:44;;;;;;;8.93;4.65;;;;;;;-143.48;55.95;118439.88;5015179;28;20392;-76
2023/06/10 04:40:10;;;;;;;7.72;5.00;;;;;;;-143.48;56.08;118439.88;5032920;28;20037;-75
2023/06/10 04:42:36;;;;;;;8.10;5.00;;;;;;;-143.48;56.46;118439.88;5015008;28;20030;-76
2023/06/10 04:45:03;;;;;;;12.88;5.30;;;;;;;-143.48;56.25;118439.88;5015080;28;20017;-76
2023/06/10 04:47:29;;;;;;;10.73;5.00;;;;;;;-143.48;56.84;118439.88;5015031;28;20373;-76
2023/06/10 04:49:55;;;;;;;9.48;4.85;;;;;;;-143.48;56.30;118439.88;5015131;28;20033;-76
2023/06/10 04:52:20;;;;;;;8.55;4.88;;;;;;;-143.48;56.43;118439.88;5015212;28;20500;-76
2023/06/10 04:54:46;;;;;;;11.77;4.82;;;;;;;-143.48;56.40;118439.88;5015069;28;20366;-76
2023/06/10 04:57:11;;;;;;;9.07;5.07;;;;;;;-143.48;55.65;118439.88;5014942;28;20036;-76
2023/06/10 04:59:38;;;;;;;10.85;5.07;;;;;;;-143.48;56.27;118439.88;5017485;28;20025;-76
2023/06/10 05:02:05;;;;;;;11.88;5.03;;;;;;;-143.48;56.06;118439.88;5015376;28;20046;-76
2023/06/10 05:04:30;;;;;;;10.40;5.07;;;;;;;-143.48;56.73;118439.88;5015602;28;20481;-76
2023/06/10 05:06:56;;;;;;;15.63;5.30;;;;;;;-143.48;55.70;118439.88;5015648;28;20037;-76
2023/06/10 05:09:21;;;;;;;10.63;5.00;;;;;;;-143.48;55.71;118439.88;5016673;28;20022;-76
2023/06/10 05:11:46;;;;;;;8.90;5.28;;;;;;;-143.48;56.22;118439.88;5015353;28;20128;-76
2023/06/10 05:14:12;;;;;;;11.00;4.93;;;;;;;-143.48;55.63;118439.88;5016643;28;20054;-76
2023/06/10 05:16:38;;;;;;;11.50;5.35;;;;;;;-143.48;56.33;118439.88;5015343;28;20046;-76
2023/06/10 05:19:04;;;;;;;11.07;5.40;;;;;;;-143.48;55.11;118439.88;5015184;28;20084;-76
2023/06/10 05:21:29;;;;;;;9.40;4.70;;;;;;;-143.48;55.32;118439.88;5015219;28;20029;-76
2023/06/10 05:23:54;;;;;;;10.50;5.13;;;;;;;-143.48;55.30;118439.88;5015207;28;20022;-76
2023/06/10 05:26:20;;;;;;;10.23;4.60;;;;;;;-143.48;54.47;118439.88;5015118;28;20079;-76
2023/06/10 05:28:45;;;;;;;12.15;5.10;;;;;;;-143.48;54.93;118439.88;5016480;28;20049;-76
2023/06/10 05:31:10;;;;;;;10.55;4.75;;;;;;;-143.48;54.20;118439.88;5016415;28;20092;-76
2023/06/10 05:33:36;;;;;;;8.63;5.10;;;;;;;-143.48;52.97;118439.88;5014797;28;20079;-76
2023/06/10 05:36:01;;;;;;;10.90;5.13;;;;;;;-143.48;50.42;118439.88;5016366;28;20113;-76
2023/06/10 05:38:27;;;;;;;8.93;5.22;;;;;;;-143.48;46.60;118439.88;5014961;28;20026;-76
2023/06/10 05:40:52;;;;;;;9.68;4.93;;;;;;;-143.48;42.70;118439.88;5016166;28;20018;-76
2023/06/10 05:43:18;;;;;;;14.60;5.43;;;;;;;-143.48;41.37;118439.88;5014966;28;20030;-76
2023/06/10 05:45:43;;;;;;;12.30;4.82;;;;;;;-143.48;41.06;118439.88;5016031;28;20112;-77
2023/06/10 05:48:08;;;;;;;10.88;4.72;;;;;;;-143.48;40.60;118439.88;5014891;28;20057;-77
2023/06/10 05:50:38;;;;;;;12.48;5.00;;;;;;;-143.48;39.98;118439.88;4998141;28;20478;-76
2023/06/10 05:53:06;;;;;;;10.90;5.00;;;;;;;-143.48;38.87;118439.88;5015913;28;20106;-77
2023/06/10 05:55:33;;;;;;;7.03;4.25;;;;;;;-143.48;38.73;118439.88;5014678;28;20030;-77
2023/06/10 05:58:00;;;;;;;8.73;5.07;;;;;;;-143.48;40.92;118439.88;5014478;28;20026;-77
2023/06/10 06:00:26;;;;;;;10.60;4.93;;;;;;;-143.48;39.38;118439.88;5014557;28;20497;-77
2023/06/10 06:02:52;;;;;;;10.70;4.78;;;;;;;-143.48;41.35;118439.88;5014573;28;20406;-77
2023/06/10 06:05:17;;;;;;;8.95;5.13;;;;;;;-143.48;41.10;118439.88;5014577;28;20080;-77
2023/06/10 06:07:43;;;;;;;9.98;4.82;;;;;;;-143.48;39.57;118439.88;5014486;28;20028;-77
2023/06/10 06:10:08;;;;;;;9.30;5.00;;;;;;;-143.48;37.45;118439.88;5014355;28;20032;-76
2023/06/10 06:12:34;;;;;;;11.88;4.95;;;;;;;-143.48;37.65;118439.88;5014438;28;20026;-76
2023/06/10 06:14:59;;;;;;;8.00;4.65;;;;;;;-143.48;38.02;118439.88;5015547;28;20535;-76
2023/06/10 06:17:24;;;;;;;12.23;5.00;;;;;;;-143.48;38.43;118439.88;5014211;28;20026;-76
2023/06/10 06:19:50;;;;;;;14.95;5.10;;;;;;;-143.48;38.42;118439.88;5014199;28;20028;-76
2023/06/10 06:22:19;;;;;;;9.90;4.82;;;;;;;-143.48;38.45;118439.88;5015458;28;20036;-76
2023/06/10 06:24:45;;;;;;;8.93;4.60;;;;;;;-143.48;38.92;118439.88;5014195;28;20026;-76
2023/06/10 06:27:10;;;;;;;10.25;4.60;;;;;;;-143.48;39.86;118439.88;5015432;28;20037;-76
2023/06/10 06:29:35;;;;;;;10.93;5.00;;;;;;;-143.48;38.09;118439.88;5014135;28;20442;-76
2023/06/10 06:32:01;;;;;;;11.93;5.43;;;;;;;-143.48;39.23;118439.88;5014085;28;20477;-76
2023/06/10 06:34:26;;;;;;;14.65;5.03;;;;;;;-143.48;38.56;118439.88;5013938;28;20030;-76
2023/06/10 06:36:51;;;;;;;11.32;5.20;;;;;;;-143.48;39.96;118439.88;5013958;28;20132;-77
2023/06/10 06:39:17;;;;;;;10.82;5.07;;;;;;;-143.48;40.02;118439.88;5015175;28;20033;-76
2023/06/10 06:41:42;;;;;;;8.98;4.78;;;;;;;-143.48;40.66;118439.88;5015044;28;20032;-76
2023/06/10 06:44:07;;;;;;;13.02;4.93;;;;;;;-143.48;40.70;118439.88;5015061;28;20470;-76
2023/06/10 06:46:34;;;;;;;8.52;4.72;;;;;;;-143.48;40.88;118439.88;5013728;28;20084;-76
2023/06/10 06:48:59;;;;;;;11.57;5.22;;;;;;;-143.48;41.20;118439.88;5013696;28;20531;-76
2023/06/10 06:51:25;;;;;;;8.55;5.00;;;;;;;-143.48;41.85;118439.88;5013642;28;20021;-76
2023/06/10 06:53:51;;;;;;;11.35;4.85;;;;;;;-143.48;40.25;118439.88;5013531;28;20473;-76
2023/06/10 06:56:16;;;;;;;7.50;4.90;;;;;;;-143.48;40.08;118439.88;5013495;28;20022;-76
2023/06/10 06:58:41;;;;;;;8.07;4.32;;;;;;;-143.48;40.40;118439.88;5013361;28;20127;-77
2023/06/10 07:01:07;;;;;;;7.10;4.63;;;;;;;-143.48;39.33;118439.88;5015374;28;20420;-76
2023/06/10 07:03:32;;;;;;;10.07;4.97;;;;;;;-143.48;39.99;118439.88;5016729;28;20053;-76
2023/06/10 07:05:57;;;;;;;10.93;4.80;;;;;;;-143.48;39.26;118439.88;5034311;28;20026;-76
2023/06/10 07:08:23;;;;;;;10.63;4.75;;;;;;;-143.48;40.00;118439.88;5016532;28;20120;-76
2023/06/10 07:10:49;;;;;;;9.57;4.65;;;;;;;-143.48;38.91;118439.88;5016367;28;20114;-76
2023/06/10 07:13:14;;;;;;;9.55;4.70;;;;;;;-143.48;40.01;118439.88;5016438;28;20036;-77
2023/06/10 07:15:39;;;;;;;8.07;4.53;;;;;;;-143.48;38.70;118439.88;5016381;28;20587;-76
2023/06/10 07:18:05;;;;;;;10.60;5.25;;;;;;;-143.48;38.64;118439.88;5016371;28;20128;-76
2023/06/10 07:20:30;;;;;;;10.43;4.82;;;;;;;-143.48;38.68;118439.88;5034126;28;20057;-77
2023/06/10 07:22:55;;;;;;;8.52;4.57;;;;;;;-143.48;39.12;118439.88;5033682;28;20025;-77
2023/06/10 07:25:21;;;;;;;9.93;4.63;;;;;;;-143.48;38.98;118439.88;5016356;28;20035;-76
2023/06/10 07:27:46;;;;;;;14.77;5.10;;;;;;;-143.48;38.16;118439.88;5016202;28;20392;-77
2023/06/10 07:30:12;;;;;;;9.95;4.78;;;;;;;-143.48;39.49;118439.88;5016312;28;20031;-76
2023/06/10 07:32:37;;;;;;;8.32;4.18;;;;;;;-143.48;37.99;118439.88;5016101;28;20029;-76
2023/06/10 07:35:03;;;;;;;9.63;4.75;;;;;;;-143.48;38.73;118439.88;5016189;28;20028;-77
2023/06/10 07:37:28;;;;;;;9.48;4.97;;;;;;;-143.48;38.63;118439.88;5016110;28;20035;-77
2023/06/10 07:39:55;;;;;;;7.47;4.30;;;;;;;-143.48;38.61;118439.88;5015938;28;20449;-77
2023/06/10 07:42:20;;;;;;;10.07;4.53;;;;;;;-143.48;37.58;118439.88;5015953;28;20112;-77
2023/06/10 07:44:46;;;;;;;8.35;4.78;;;;;;;-143.48;36.86;118439.88;5015979;28;20067;-77
2023/06/10 07:47:11;;;;;;;10.93;5.00;;;;;;;-143.48;37.28;118439.88;5016025;28;20136;-77
2023/06/10 07:49:37;;;;;;;10.20;4.57;;;;;;;-143.48;39.93;118439.88;5015925;28;20029;-77
2023/06/10 07:52:02;;;;;;;11.73;4.80;;;;;;;-143.48;38.64;118439.88;5033519;28;20048;-76
2023/06/10 07:54:27;;;;;;;11.43;4.60;;;;;;;-143.48;37.03;118439.88;5015716;28;20058;-77
2023/06/10 07:56:53;;;;;;;9.10;4.47;;;;;;;-143.48;37.99;118439.88;5015687;28;20369;-76
2023/06/10 07:59:18;;;;;;;8.57;4.47;;;;;;;-143.48;38.23;118439.88;5033407;28;20471;-76
2023/06/10 08:01:44;;;;;;;11.57;4.47;;;;;;;-143.48;37.25;118439.88;5015648;28;20382;-77
2023/06/10 08:04:09;;;;;;;9.30;4.50;;;;;;;-143.48;36.26;118439.88;5033574;28;20033;-77
2023/06/10 08:06:36;;;;;;;8.38;4.50;;;;;;;-143.48;36.43;118439.88;5015754;28;20025;-77
2023/06/10 08:09:02;;;;;;;7.95;4.38;;;;;;;-143.48;36.43;118439.88;5015595;28;20029;-77
2023/06/10 08:11:28;;;;;;;9.60;4.28;;;;;;;-143.48;35.60;118439.88;5015515;28;20405;-77
2023/06/10 08:13:54;;;;;;;11.88;4.75;;;;;;;-143.48;35.44;118439.88;5015607;28;20504;-77
2023/06/10 08:16:19;;;;;;;7.30;4.40;;;;;;;-143.48;35.72;118439.88;5016243;28;20095;-77
2023/06/10 08:18:45;;;;;;;10.25;4.10;;;;;;;-143.48;35.20;118439.88;5015632;28;20029;-77
2023/06/10 08:21:10;;;;;;;6.47;4.22;;;;;;;-143.48;34.11;118439.88;5016379;28;20025;-77
2023/06/10 08:23:35;;;;;;;8.95;4.32;;;;;;;-143.48;35.36;118439.88;5033248;28;20388;-77
2023/06/10 08:26:01;;;;;;;7.65;4.30;;;;;;;-143.48;34.42;118439.88;5015264;28;20112;-77
2023/06/10 08:28:26;;;;;;;9.32;4.60;;;;;;;-143.48;34.87;118439.88;5015632;28;20071;-77
2023/06/10 08:30:51;;;;;;;11.57;4.55;;;;;;;-143.48;36.56;118439.88;5015751;28;20389;-77
2023/06/10 08:33:16;;;;;;;9.90;4.22;;;;;;;-143.48;34.83;118439.88;5032534;28;20029;-76
2023/06/10 08:35:42;;;;;;;8.27;4.55;;;;;;;-143.48;35.67;118439.88;5015723;28;20028;-77
2023/06/10 08:38:08;;;;;;;19.67;4.63;;;;;;;-143.48;35.27;118439.88;5015586;28;20021;-76
2023/06/10 08:40:34;;;;;;;7.43;4.30;;;;;;;-143.48;35.28;118439.88;5015740;28;20018;-77
2023/06/10 08:43:07;;;;;;;14.30;4.50;;;;;;;-143.48;34.12;118439.88;5033549;28;20079;-76
2023/06/10 08:45:35;;;;;;;8.68;4.47;;;;;;;-143.48;34.62;118439.88;5015633;28;20013;-77
2023/06/10 08:48:06;;;;;;;8.38;4.40;;;;;;;-143.48;34.82;118439.88;5033480;28;20556;-76
2023/06/10 08:50:35;;;;;;;10.10;4.03;;;;;;;-143.48;34.66;118439.88;5015286;28;20108;-77
2023/06/10 08:53:01;;;;;;;8.15;4.10;;;;;;;-143.48;34.50;118439.88;5033371;28;20030;-76
2023/06/10 08:55:30;;;;;;;9.98;4.50;;;;;;;-143.48;33.30;118439.88;5015461;28;20030;-77
2023/06/10 08:57:56;;;;;;;9.30;4.15;;;;;;;-143.48;34.95;118439.88;5015191;28;20183;-76
2023/06/10 09:00:22;;;;;;;12.60;4.28;;;;;;;-143.48;33.84;118439.88;5033320;28;20104;-76
2023/06/10 09:02:47;;;;;;;9.27;4.30;;;;;;;-143.48;34.01;118439.88;5033074;28;20042;-76
2023/06/10 09:05:13;;;;;;;10.73;4.18;;;;;;;-143.48;34.23;118439.88;5014956;28;20115;-76
2023/06/10 09:07:39;;;;;;;8.45;4.50;;;;;;;-143.48;34.86;118439.88;5033060;28;20029;-75
2023/06/10 09:10:07;;;;;;;10.85;4.15;;;;;;;-143.48;35.60;118439.88;5015258;28;20041;-75
2023/06/10 09:12:34;;;;;;;8.05;4.03;;;;;;;-143.48;34.86;118439.88;5032526;28;20025;-75
2023/06/10 09:15:00;;;;;;;8.68;3.83;;;;;;;-143.48;33.71;118439.88;5015142;28;20052;-75
2023/06/10 09:17:27;;;;;;;13.00;4.47;;;;;;;-143.48;34.01;118439.88;5014947;28;20021;-75
2023/06/10 09:19:55;;;;;;;9.07;4.40;;;;;;;-143.48;33.34;118439.88;5031767;28;20025;-75
2023/06/10 09:22:21;;;;;;;9.52;4.28;;;;;;;-143.48;35.12;118439.88;5013907;28;20025;-75
2023/06/10 09:24:47;;;;;;;6.85;4.13;;;;;;;-143.48;34.70;118439.88;5031678;28;20018;-75
2023/06/10 09:27:13;;;;;;;9.23;4.50;;;;;;;-143.48;33.78;118439.88;5031680;28;20025;-76
2023/06/10 09:29:51;;;;;;;8.38;4.10;;;;;;;-143.48;33.25;118439.88;5031634;28;20029;-75
2023/06/10 09:32:18;;;;;;;8.10;4.43;;;;;;;-143.48;34.84;118439.88;5031499;28;20029;-75
2023/06/10 09:34:44;;;;;;;12.35;4.38;;;;;;;-143.48;33.32;118439.88;5032975;28;20391;-75
2023/06/10 09:37:12;;;;;;;10.30;4.25;;;;;;;-143.48;33.55;118439.88;5033167;28;20033;-75
2023/06/10 09:39:38;;;;;;;13.15;4.40;;;;;;;-143.48;32.86;118439.88;5015123;28;20022;-75
2023/06/10 09:42:16;;;;;;;8.38;4.25;;;;;;;-143.48;33.84;118439.88;5014914;28;20468;-75
2023/06/10 09:44:41;;;;;;;8.10;3.90;;;;;;;-143.48;33.04;118439.88;5033648;28;20071;-74
2023/06/10 09:47:07;;;;;;;12.32;4.32;;;;;;;-143.48;32.80;118439.88;5036352;28;20356;-75
2023/06/10 09:49:32;;;;;;;7.00;4.38;;;;;;;-143.48;33.27;118439.88;5036526;28;20546;-75
2023/06/10 09:51:57;;;;;;;7.75;4.30;;;;;;;-143.48;33.65;118439.88;5036741;28;20065;-75
2023/06/10 09:54:23;;;;;;;9.77;4.25;;;;;;;-143.48;33.29;118439.88;5036020;28;20521;-75
2023/06/10 09:56:51;;;;;;;10.45;4.07;;;;;;;-143.48;33.83;118439.88;5036179;28;20047;-78
2023/06/10 09:59:27;;;;;;;8.77;3.92;;;;;;;-143.48;32.44;118439.88;5018619;28;20068;-75
2023/06/10 10:01:55;;;;;;;10.75;4.03;;;;;;;-143.48;33.07;118439.88;5018106;28;20204;-75
2023/06/10 10:04:25;;;;;;;11.45;4.07;;;;;;;-143.48;33.54;118439.88;5018227;28;20025;-75
2023/06/10 10:06:51;;;;;;;8.38;4.20;;;;;;;-143.48;33.94;118439.88;5036078;28;20048;-75
2023/06/10 10:09:16;;;;;;;11.93;4.28;;;;;;;-143.48;32.90;118439.88;5036018;28;20025;-75
2023/06/10 10:11:43;;;;;;;7.47;4.10;;;;;;;-143.48;31.84;118439.88;5017954;28;20022;-75
2023/06/10 10:14:09;;;;;;;8.93;3.83;;;;;;;-143.48;31.21;118439.88;5018401;28;20129;-76
2023/06/10 10:16:41;;;;;;;7.30;3.88;;;;;;;-143.48;30.86;118439.88;5017981;28;20060;-75
2023/06/10 10:19:25;;;;;;;10.65;4.35;;;;;;;-143.48;31.46;118439.88;5035678;28;20021;-76
2023/06/10 10:21:54;;;;;;;7.40;4.00;;;;;;;-143.48;32.49;118439.88;5017696;28;20127;-76
2023/06/10 10:24:23;;;;;;;8.68;4.13;;;;;;;-143.48;32.07;118439.88;5017779;28;20029;-75
2023/06/10 10:26:50;;;;;;;6.28;3.78;;;;;;;-143.48;31.08;118439.88;5035549;28;20025;-76
2023/06/10 10:29:31;;;;;;;10.27;4.22;;;;;;;-143.48;30.31;118439.88;5018277;28;20025;-75
2023/06/10 10:32:00;;;;;;;13.82;4.22;;;;;;;-143.48;30.25;118439.88;5018868;28;20028;-76
2023/06/10 10:34:43;;;;;;;9.07;3.70;;;;;;;-143.48;30.87;118439.88;5034797;28;20500;-76
2023/06/10 10:37:08;;;;;;;9.50;3.90;;;;;;;-143.48;30.55;118439.88;5017060;28;20477;-75
2023/06/10 10:39:36;;;;;;;11.05;3.90;;;;;;;-143.48;30.22;118439.88;5034696;28;20021;-75
2023/06/10 10:42:03;;;;;;;8.15;4.03;;;;;;;-143.48;31.19;118439.88;5016881;28;20041;-75
2023/06/10 10:44:29;;;;;;;12.95;4.15;;;;;;;-143.48;31.51;118439.88;5034666;28;20393;-74
2023/06/10 10:46:56;;;;;;;8.20;3.90;;;;;;;-143.48;31.00;118439.88;5016874;28;20032;-75
2023/06/10 10:49:22;;;;;;;11.13;4.20;;;;;;;-143.48;31.44;118439.88;5016898;28;20495;-75
2023/06/10 10:51:56;;;;;;;8.38;3.83;;;;;;;-143.48;31.27;118439.88;5034440;28;20103;-76
2023/06/10 10:54:29;;;;;;;7.63;3.85;;;;;;;-143.48;30.94;118439.88;5034656;28;20026;-75
2023/06/10 10:57:20;;;;;;;6.60;3.97;;;;;;;-143.48;30.62;118439.88;5015807;28;20396;-75
2023/06/10 10:59:48;;;;;;;12.45;3.72;;;;;;;-143.48;30.45;118439.88;5034504;28;20022;-75
2023/06/10 11:02:38;;;;;;;8.95;3.90;;;;;;;-143.48;30.51;118439.88;5018032;28;20049;-75
2023/06/10 11:05:04;;;;;;;7.13;3.97;;;;;;;-143.48;30.46;118439.88;5023580;28;20138;-75